createdAt,value
2017-06-19T00:00:40.186Z,21.4
2017-06-19T00:01:20.785Z,21.4
2017-06-19T00:02:01.362Z,21.36
2017-06-19T00:02:41.942Z,21.33
2017-06-19T00:03:22.525Z,21.4
2017-06-19T00:04:03.111Z,21.46
2017-06-19T00:04:43.711Z,21.4
2017-06-19T00:05:24.302Z,21.33
2017-06-19T00:06:04.903Z,21.4
2017-06-19T00:06:45.487Z,21.42
2017-06-19T00:07:26.093Z,21.45
2017-06-19T00:08:06.669Z,21.42
2017-06-19T00:08:47.251Z,21.45
2017-06-19T00:09:27.831Z,21.43
2017-06-19T00:10:08.494Z,21.5
2017-06-19T00:10:49.079Z,21.46
2017-06-19T00:11:29.659Z,21.37
2017-06-19T00:12:10.238Z,21.39
2017-06-19T00:12:50.833Z,21.4
2017-06-19T00:13:31.411Z,21.39
2017-06-19T00:14:11.996Z,21.32
2017-06-19T00:14:52.674Z,21.27
2017-06-19T00:15:33.258Z,21.33
2017-06-19T00:16:13.844Z,21.33
2017-06-19T00:16:54.502Z,21.3
2017-06-19T00:17:35.092Z,21.35
2017-06-19T00:18:18.210Z,21.32
2017-06-19T00:18:58.808Z,21.35
2017-06-19T00:19:39.400Z,21.29
2017-06-19T00:20:19.985Z,21.29
2017-06-19T00:21:00.570Z,21.24
2017-06-19T00:21:41.172Z,21.33
2017-06-19T00:22:21.750Z,21.3
2017-06-19T00:23:02.333Z,21.3
2017-06-19T00:23:42.926Z,21.25
2017-06-19T00:24:23.529Z,21.15
2017-06-19T00:25:04.115Z,21.22
2017-06-19T00:25:44.701Z,21.12
2017-06-19T00:26:25.294Z,21.14
2017-06-19T00:27:05.881Z,21.07
2017-06-19T00:27:46.476Z,21.09
2017-06-19T00:28:27.068Z,21.17
2017-06-19T00:29:07.653Z,21.18
2017-06-19T00:29:48.254Z,21.15
2017-06-19T00:30:28.832Z,21.09
2017-06-19T00:31:09.414Z,21
2017-06-19T00:31:49.997Z,21.11
2017-06-19T00:32:30.594Z,21.11
2017-06-19T00:33:11.154Z,21.02
2017-06-19T00:33:51.735Z,21.12
2017-06-19T00:34:32.305Z,21.06
2017-06-19T00:35:12.895Z,21.03
2017-06-19T00:35:53.476Z,20.99
2017-06-19T00:36:34.051Z,20.99
2017-06-19T00:37:14.658Z,20.97
2017-06-19T00:37:55.236Z,20.99
2017-06-19T00:38:35.832Z,20.85
2017-06-19T00:39:16.549Z,20.96
2017-06-19T00:39:57.155Z,20.99
2017-06-19T00:40:37.739Z,20.85
2017-06-19T00:41:18.320Z,20.93
2017-06-19T00:41:58.921Z,20.93
2017-06-19T00:42:39.507Z,20.85
2017-06-19T00:43:20.096Z,20.9
2017-06-19T00:44:00.687Z,20.84
2017-06-19T00:44:41.269Z,20.84
2017-06-19T00:45:21.851Z,20.82
2017-06-19T00:46:02.431Z,20.84
2017-06-19T00:46:43.013Z,20.82
2017-06-19T00:47:23.617Z,20.84
2017-06-19T00:48:04.220Z,20.84
2017-06-19T00:48:44.796Z,20.81
2017-06-19T00:49:25.401Z,20.9
2017-06-19T00:50:05.982Z,20.82
2017-06-19T00:50:46.563Z,20.85
2017-06-19T00:51:27.145Z,20.85
2017-06-19T00:52:07.737Z,20.87
2017-06-19T00:52:48.311Z,20.87
2017-06-19T00:53:28.904Z,20.85
2017-06-19T00:54:09.490Z,20.84
2017-06-19T00:54:50.069Z,20.81
2017-06-19T00:55:30.645Z,20.81
2017-06-19T00:56:11.229Z,20.82
2017-06-19T00:56:51.805Z,20.8
2017-06-19T00:57:32.393Z,20.77
2017-06-19T00:58:12.990Z,20.75
2017-06-19T00:58:53.604Z,20.7
2017-06-19T00:59:34.181Z,20.74
2017-06-19T01:00:14.767Z,20.7
2017-06-19T01:00:55.363Z,20.67
2017-06-19T01:01:35.962Z,20.66
2017-06-19T01:02:16.554Z,20.63
2017-06-19T01:02:57.135Z,20.67
2017-06-19T01:03:37.721Z,20.66
2017-06-19T01:04:18.303Z,20.66
2017-06-19T01:04:58.919Z,20.7
2017-06-19T01:05:39.494Z,20.66
2017-06-19T01:06:20.086Z,20.62
2017-06-19T01:07:00.685Z,20.65
2017-06-19T01:07:41.285Z,20.63
2017-06-19T01:08:21.893Z,20.65
2017-06-19T01:09:02.472Z,20.62
2017-06-19T01:09:43.062Z,20.59
2017-06-19T01:10:23.634Z,20.55
2017-06-19T01:11:04.221Z,20.5
2017-06-19T01:11:44.811Z,20.59
2017-06-19T01:12:25.399Z,20.52
2017-06-19T01:13:06.073Z,20.51
2017-06-19T01:13:46.671Z,20.51
2017-06-19T01:14:27.265Z,20.52
2017-06-19T01:15:07.841Z,20.56
2017-06-19T01:15:48.424Z,20.5
2017-06-19T01:16:29.017Z,20.47
2017-06-19T01:17:09.588Z,20.44
2017-06-19T01:17:50.178Z,20.48
2017-06-19T01:18:30.788Z,20.55
2017-06-19T01:19:11.420Z,20.48
2017-06-19T01:19:52.076Z,20.47
2017-06-19T01:20:32.651Z,20.47
2017-06-19T01:21:13.242Z,20.4
2017-06-19T01:21:53.837Z,20.4
2017-06-19T01:22:34.422Z,20.5
2017-06-19T01:23:15.005Z,20.5
2017-06-19T01:23:55.613Z,20.37
2017-06-19T01:24:36.168Z,20.41
2017-06-19T01:25:16.788Z,20.39
2017-06-19T01:25:57.368Z,20.39
2017-06-19T01:26:37.955Z,20.37
2017-06-19T01:27:18.599Z,20.44
2017-06-19T01:27:59.188Z,20.39
2017-06-19T01:28:39.780Z,20.41
2017-06-19T01:29:20.365Z,20.44
2017-06-19T01:30:00.943Z,20.37
2017-06-19T01:30:41.536Z,20.28
2017-06-19T01:31:22.151Z,20.26
2017-06-19T01:32:02.756Z,20.36
2017-06-19T01:32:43.328Z,20.32
2017-06-19T01:33:23.918Z,20.28
2017-06-19T01:34:04.511Z,20.31
2017-06-19T01:34:45.114Z,20.36
2017-06-19T01:35:25.692Z,20.31
2017-06-19T01:36:06.282Z,20.31
2017-06-19T01:36:46.861Z,20.32
2017-06-19T01:37:27.441Z,20.26
2017-06-19T01:38:08.019Z,20.31
2017-06-19T01:38:48.611Z,20.26
2017-06-19T01:39:29.229Z,20.32
2017-06-19T01:40:09.826Z,20.24
2017-06-19T01:40:50.414Z,20.34
2017-06-19T01:41:31.006Z,20.24
2017-06-19T01:42:11.651Z,20.36
2017-06-19T01:42:52.237Z,20.21
2017-06-19T01:43:32.858Z,20.32
2017-06-19T01:44:13.446Z,20.34
2017-06-19T01:44:54.065Z,20.29
2017-06-19T01:45:34.654Z,20.26
2017-06-19T01:46:15.241Z,20.4
2017-06-19T01:46:55.839Z,20.37
2017-06-19T01:47:36.406Z,20.39
2017-06-19T01:48:17.002Z,20.37
2017-06-19T01:48:57.584Z,20.39
2017-06-19T01:49:38.171Z,20.37
2017-06-19T01:50:18.761Z,20.58
2017-06-19T01:50:59.333Z,20.43
2017-06-19T01:51:39.917Z,20.47
2017-06-19T01:52:20.505Z,20.36
2017-06-19T01:53:01.081Z,20.41
2017-06-19T01:53:41.664Z,20.39
2017-06-19T01:54:22.276Z,20.39
2017-06-19T01:55:02.862Z,20.36
2017-06-19T01:55:43.447Z,20.29
2017-06-19T01:56:24.087Z,20.31
2017-06-19T01:57:04.682Z,20.25
2017-06-19T01:57:45.260Z,20.21
2017-06-19T01:58:25.851Z,20.24
2017-06-19T01:59:06.426Z,20.24
2017-06-19T01:59:47.017Z,20.22
2017-06-19T02:00:27.589Z,20.25
2017-06-19T02:01:08.179Z,20.24
2017-06-19T02:01:48.796Z,20.13
2017-06-19T02:02:29.404Z,20.18
2017-06-19T02:03:10.020Z,20.19
2017-06-19T02:03:50.612Z,20.25
2017-06-19T02:04:31.196Z,20.16
2017-06-19T02:05:11.780Z,20.1
2017-06-19T02:05:52.356Z,20.11
2017-06-19T02:06:32.973Z,20.21
2017-06-19T02:07:13.551Z,20.13
2017-06-19T02:07:54.156Z,20.24
2017-06-19T02:08:34.755Z,20.19
2017-06-19T02:09:15.339Z,20.13
2017-06-19T02:09:55.919Z,20.1
2017-06-19T02:10:36.494Z,20.14
2017-06-19T02:11:17.082Z,20.16
2017-06-19T02:11:57.693Z,20.21
2017-06-19T02:12:38.282Z,20.06
2017-06-19T02:13:18.870Z,20.09
2017-06-19T02:13:59.502Z,20.07
2017-06-19T02:14:40.082Z,19.99
2017-06-19T02:15:20.698Z,20.09
2017-06-19T02:16:01.297Z,20
2017-06-19T02:16:41.876Z,20.02
2017-06-19T02:17:22.457Z,20.07
2017-06-19T02:18:03.069Z,20.07
2017-06-19T02:18:43.666Z,20.07
2017-06-19T02:19:24.246Z,20.11
2017-06-19T02:20:12.895Z,20.07
2017-06-19T02:21:44.626Z,20.07
2017-06-19T02:22:25.188Z,20
2017-06-19T02:23:05.819Z,20.11
2017-06-19T02:23:46.398Z,19.95
2017-06-19T02:24:26.967Z,19.94
2017-06-19T02:25:07.538Z,19.92
2017-06-19T02:25:48.223Z,19.96
2017-06-19T02:26:28.808Z,20
2017-06-19T02:27:09.378Z,20.02
2017-06-19T02:27:49.961Z,19.94
2017-06-19T02:28:30.566Z,20.04
2017-06-19T02:29:11.180Z,19.94
2017-06-19T02:29:51.760Z,20.03
2017-06-19T02:30:32.342Z,20.06
2017-06-19T02:31:12.919Z,19.95
2017-06-19T02:31:53.495Z,20.09
2017-06-19T02:32:34.064Z,20.03
2017-06-19T02:33:14.639Z,20.04
2017-06-19T02:33:55.296Z,20.07
2017-06-19T02:34:35.844Z,19.96
2017-06-19T02:35:16.435Z,20
2017-06-19T02:35:57.024Z,20.07
2017-06-19T02:36:37.611Z,19.99
2017-06-19T02:37:18.186Z,20.07
2017-06-19T02:37:58.767Z,20.03
2017-06-19T02:38:39.337Z,20.09
2017-06-19T02:39:19.922Z,20.04
2017-06-19T02:40:00.495Z,19.99
2017-06-19T02:40:41.076Z,20
2017-06-19T02:41:21.665Z,19.99
2017-06-19T02:42:02.268Z,20.06
2017-06-19T02:42:42.843Z,19.94
2017-06-19T02:43:23.432Z,20.04
2017-06-19T02:44:04.017Z,19.92
2017-06-19T02:44:44.601Z,19.95
2017-06-19T02:45:25.185Z,19.99
2017-06-19T02:46:05.763Z,20.07
2017-06-19T02:46:46.345Z,20.03
2017-06-19T02:47:26.927Z,19.92
2017-06-19T02:48:07.513Z,19.91
2017-06-19T02:48:48.094Z,19.95
2017-06-19T02:49:28.685Z,20.04
2017-06-19T02:50:09.271Z,20.04
2017-06-19T02:50:49.858Z,20.04
2017-06-19T02:51:30.452Z,20.04
2017-06-19T02:52:11.091Z,20.04
2017-06-19T02:52:51.700Z,20.03
2017-06-19T02:53:32.286Z,20
2017-06-19T02:54:12.865Z,20.07
2017-06-19T02:54:53.462Z,20.09
2017-06-19T02:55:34.055Z,20.03
2017-06-19T02:56:14.637Z,20.02
2017-06-19T02:56:55.227Z,20.11
2017-06-19T02:57:35.803Z,20.1
2017-06-19T02:58:16.381Z,20.1
2017-06-19T02:58:56.960Z,20.21
2017-06-19T02:59:37.550Z,20.19
2017-06-19T03:00:18.129Z,20.25
2017-06-19T03:00:58.705Z,20.1
2017-06-19T03:01:39.290Z,20.18
2017-06-19T03:02:19.878Z,20.11
2017-06-19T03:03:00.487Z,20.25
2017-06-19T03:03:41.071Z,20.14
2017-06-19T03:04:21.669Z,20.14
2017-06-19T03:05:02.246Z,20.21
2017-06-19T03:05:42.847Z,20.11
2017-06-19T03:06:23.434Z,20.11
2017-06-19T03:07:04.026Z,20.06
2017-06-19T03:07:44.623Z,20.03
2017-06-19T03:08:25.230Z,20.03
2017-06-19T03:09:05.812Z,20.09
2017-06-19T03:09:46.396Z,20.07
2017-06-19T03:10:26.984Z,19.96
2017-06-19T03:11:07.553Z,20.03
2017-06-19T03:11:48.258Z,19.95
2017-06-19T03:12:28.851Z,20.03
2017-06-19T03:13:09.442Z,20
2017-06-19T03:13:50.034Z,19.92
2017-06-19T03:14:30.603Z,20.02
2017-06-19T03:15:11.227Z,19.94
2017-06-19T03:15:51.782Z,19.96
2017-06-19T03:16:32.357Z,19.96
2017-06-19T03:17:12.982Z,19.95
2017-06-19T03:17:53.582Z,19.92
2017-06-19T03:18:34.156Z,19.96
2017-06-19T03:19:14.811Z,19.96
2017-06-19T03:19:55.391Z,19.89
2017-06-19T03:20:36.005Z,19.94
2017-06-19T03:21:16.581Z,20.06
2017-06-19T03:21:57.170Z,19.99
2017-06-19T03:22:37.805Z,19.92
2017-06-19T03:23:18.387Z,19.92
2017-06-19T03:23:58.976Z,19.84
2017-06-19T03:24:39.561Z,19.89
2017-06-19T03:25:20.149Z,19.92
2017-06-19T03:26:00.739Z,19.91
2017-06-19T03:26:41.323Z,19.84
2017-06-19T03:27:21.910Z,19.89
2017-06-19T03:28:02.508Z,19.95
2017-06-19T03:28:43.081Z,19.88
2017-06-19T03:29:23.679Z,19.95
2017-06-19T03:30:04.259Z,19.88
2017-06-19T03:30:44.868Z,20.02
2017-06-19T03:31:25.467Z,20.04
2017-06-19T03:32:06.051Z,20.04
2017-06-19T03:32:46.622Z,19.94
2017-06-19T03:33:27.214Z,19.94
2017-06-19T03:34:07.817Z,19.96
2017-06-19T03:34:48.404Z,20.1
2017-06-19T03:35:29.015Z,19.94
2017-06-19T03:36:09.616Z,20.03
2017-06-19T03:36:50.194Z,20
2017-06-19T03:37:30.914Z,20.04
2017-06-19T03:38:11.515Z,20.07
2017-06-19T03:38:52.130Z,20
2017-06-19T03:39:32.724Z,20.04
2017-06-19T03:40:13.312Z,20.03
2017-06-19T03:40:53.906Z,20.02
2017-06-19T03:41:34.487Z,20.11
2017-06-19T03:42:15.068Z,20.03
2017-06-19T03:42:55.655Z,20.09
2017-06-19T03:43:36.241Z,20.03
2017-06-19T03:44:16.853Z,19.96
2017-06-19T03:44:57.464Z,20.03
2017-06-19T03:45:38.044Z,19.94
2017-06-19T03:46:18.630Z,20
2017-06-19T03:46:59.223Z,19.99
2017-06-19T03:47:39.803Z,19.96
2017-06-19T03:48:20.400Z,19.95
2017-06-19T03:49:01.002Z,19.95
2017-06-19T03:49:41.620Z,20.07
2017-06-19T03:50:22.198Z,20
2017-06-19T03:51:02.767Z,19.95
2017-06-19T03:51:43.358Z,19.99
2017-06-19T03:52:23.965Z,19.96
2017-06-19T03:53:04.551Z,19.95
2017-06-19T03:53:45.150Z,19.92
2017-06-19T03:54:25.731Z,19.95
2017-06-19T03:55:06.321Z,20.03
2017-06-19T03:55:46.915Z,20
2017-06-19T03:56:27.541Z,19.94
2017-06-19T03:57:08.153Z,20
2017-06-19T03:57:48.803Z,19.96
2017-06-19T03:58:29.430Z,19.91
2017-06-19T03:59:10.008Z,20.03
2017-06-19T03:59:50.602Z,20.06
2017-06-19T04:00:31.199Z,20.07
2017-06-19T04:01:11.798Z,20.19
2017-06-19T04:01:52.392Z,20.14
2017-06-19T04:02:32.987Z,20.22
2017-06-19T04:03:13.579Z,20.16
2017-06-19T04:03:54.213Z,20.18
2017-06-19T04:04:34.834Z,20.28
2017-06-19T04:05:15.390Z,20.32
2017-06-19T04:05:56.023Z,20.34
2017-06-19T04:06:36.581Z,20.29
2017-06-19T04:07:17.175Z,20.39
2017-06-19T04:07:57.763Z,20.37
2017-06-19T04:08:38.359Z,20.37
2017-06-19T04:09:18.982Z,20.41
2017-06-19T04:09:59.566Z,20.41
2017-06-19T04:10:40.159Z,20.43
2017-06-19T04:11:20.832Z,20.51
2017-06-19T04:12:01.428Z,20.44
2017-06-19T04:12:42.055Z,20.44
2017-06-19T04:13:22.649Z,20.52
2017-06-19T04:14:03.349Z,20.51
2017-06-19T04:14:43.934Z,20.55
2017-06-19T04:15:24.510Z,20.56
2017-06-19T04:16:05.096Z,20.44
2017-06-19T04:16:45.668Z,20.48
2017-06-19T04:17:26.256Z,20.48
2017-06-19T04:18:06.838Z,20.44
2017-06-19T04:18:47.427Z,20.55
2017-06-19T04:19:28.036Z,20.41
2017-06-19T04:20:08.624Z,20.51
2017-06-19T04:20:49.216Z,20.52
2017-06-19T04:21:29.827Z,20.51
2017-06-19T04:22:10.412Z,20.48
2017-06-19T04:22:51.003Z,20.58
2017-06-19T04:23:31.613Z,20.58
2017-06-19T04:24:12.212Z,20.59
2017-06-19T04:24:52.796Z,20.63
2017-06-19T04:25:33.536Z,20.63
2017-06-19T04:26:13.966Z,20.66
2017-06-19T04:26:54.564Z,20.67
2017-06-19T04:27:35.151Z,20.67
2017-06-19T04:28:15.773Z,20.69
2017-06-19T04:28:56.361Z,20.67
2017-06-19T04:29:36.953Z,20.75
2017-06-19T04:30:17.550Z,20.72
2017-06-19T04:30:58.135Z,20.8
2017-06-19T04:31:38.733Z,20.75
2017-06-19T04:32:19.315Z,20.8
2017-06-19T04:32:59.933Z,20.82
2017-06-19T04:33:40.517Z,20.8
2017-06-19T04:34:21.137Z,20.77
2017-06-19T04:35:01.712Z,20.82
2017-06-19T04:35:42.341Z,20.77
2017-06-19T04:36:22.925Z,20.84
2017-06-19T04:37:03.510Z,20.84
2017-06-19T04:37:44.089Z,20.81
2017-06-19T04:38:24.662Z,20.78
2017-06-19T04:39:05.280Z,20.82
2017-06-19T04:39:45.881Z,20.82
2017-06-19T04:40:26.480Z,20.93
2017-06-19T04:41:07.079Z,20.88
2017-06-19T04:41:47.701Z,20.88
2017-06-19T04:42:28.286Z,20.93
2017-06-19T04:43:08.897Z,20.85
2017-06-19T04:43:49.497Z,20.88
2017-06-19T04:44:30.086Z,20.88
2017-06-19T04:45:10.671Z,20.93
2017-06-19T04:45:51.254Z,20.93
2017-06-19T04:46:31.910Z,20.82
2017-06-19T04:47:12.473Z,20.93
2017-06-19T04:47:53.064Z,20.85
2017-06-19T04:48:33.729Z,20.92
2017-06-19T04:49:14.314Z,20.88
2017-06-19T04:49:54.904Z,20.84
2017-06-19T04:50:35.499Z,20.95
2017-06-19T04:51:16.081Z,20.85
2017-06-19T04:51:56.680Z,20.93
2017-06-19T04:52:37.272Z,20.96
2017-06-19T04:53:17.874Z,20.93
2017-06-19T04:53:58.473Z,20.85
2017-06-19T04:54:39.093Z,20.97
2017-06-19T04:55:19.686Z,21.09
2017-06-19T04:56:00.261Z,20.97
2017-06-19T04:56:40.860Z,20.99
2017-06-19T04:57:21.459Z,21
2017-06-19T04:58:02.049Z,21.05
2017-06-19T04:58:42.631Z,21.06
2017-06-19T04:59:23.256Z,21.03
2017-06-19T05:00:03.852Z,21.02
2017-06-19T05:00:44.453Z,21.09
2017-06-19T05:01:25.052Z,21.06
2017-06-19T05:02:05.654Z,21.12
2017-06-19T05:02:46.291Z,21.17
2017-06-19T05:03:26.867Z,21.12
2017-06-19T05:04:07.440Z,21.14
2017-06-19T05:04:48.059Z,21.2
2017-06-19T05:05:28.682Z,21.09
2017-06-19T05:06:09.275Z,21.22
2017-06-19T05:06:49.924Z,21.33
2017-06-19T05:07:30.507Z,21.2
2017-06-19T05:08:11.092Z,21.32
2017-06-19T05:08:51.675Z,21.3
2017-06-19T05:09:32.258Z,21.36
2017-06-19T05:10:12.840Z,21.33
2017-06-19T05:10:53.428Z,21.33
2017-06-19T05:11:34.104Z,21.3
2017-06-19T05:12:14.685Z,21.32
2017-06-19T05:12:55.262Z,21.39
2017-06-19T05:13:35.842Z,21.39
2017-06-19T05:14:16.443Z,21.48
2017-06-19T05:14:57.052Z,21.45
2017-06-19T05:15:37.635Z,21.43
2017-06-19T05:16:18.222Z,21.43
2017-06-19T05:16:58.798Z,21.46
2017-06-19T05:17:39.379Z,21.48
2017-06-19T05:18:20.008Z,21.5
2017-06-19T05:19:00.588Z,21.62
2017-06-19T05:19:41.175Z,21.61
2017-06-19T05:20:21.869Z,21.67
2017-06-19T05:21:02.439Z,21.72
2017-06-19T05:21:43.025Z,21.75
2017-06-19T05:22:23.611Z,21.79
2017-06-19T05:23:04.214Z,21.92
2017-06-19T05:23:44.815Z,21.77
2017-06-19T05:24:25.402Z,21.92
2017-06-19T05:25:06.077Z,21.95
2017-06-19T05:25:46.654Z,22.02
2017-06-19T05:26:27.252Z,22.04
2017-06-19T05:27:07.840Z,22.22
2017-06-19T05:27:48.436Z,22.17
2017-06-19T05:28:29.039Z,22.28
2017-06-19T05:29:09.678Z,22.36
2017-06-19T05:29:50.300Z,22.43
2017-06-19T05:30:30.895Z,22.44
2017-06-19T05:31:11.504Z,22.51
2017-06-19T05:31:52.114Z,22.69
2017-06-19T05:32:32.704Z,22.68
2017-06-19T05:33:13.362Z,22.8
2017-06-19T05:33:53.914Z,22.88
2017-06-19T05:34:34.491Z,23
2017-06-19T05:35:15.078Z,23.02
2017-06-19T05:35:55.674Z,23.03
2017-06-19T05:36:36.279Z,23.17
2017-06-19T05:37:16.982Z,23.24
2017-06-19T05:37:57.554Z,23.34
2017-06-19T05:38:38.141Z,23.46
2017-06-19T05:39:18.767Z,23.47
2017-06-19T05:39:59.370Z,23.58
2017-06-19T05:40:39.961Z,23.71
2017-06-19T05:41:20.536Z,23.8
2017-06-19T05:42:01.137Z,23.87
2017-06-19T05:42:41.731Z,23.96
2017-06-19T05:43:22.321Z,24.13
2017-06-19T05:44:02.950Z,24.13
2017-06-19T05:44:43.716Z,24.14
2017-06-19T05:45:24.289Z,24.17
2017-06-19T05:46:04.870Z,24.2
2017-06-19T05:46:45.456Z,24.32
2017-06-19T05:47:26.041Z,24.4
2017-06-19T05:48:06.623Z,24.47
2017-06-19T05:48:47.198Z,24.54
2017-06-19T05:49:27.783Z,24.57
2017-06-19T05:50:08.370Z,24.66
2017-06-19T05:50:48.988Z,24.65
2017-06-19T05:51:29.631Z,24.78
2017-06-19T05:52:10.240Z,24.73
2017-06-19T05:52:50.892Z,24.84
2017-06-19T05:53:31.480Z,24.91
2017-06-19T05:54:12.107Z,24.93
2017-06-19T05:54:52.680Z,24.96
2017-06-19T05:55:33.283Z,25.01
2017-06-19T05:56:13.890Z,25.06
2017-06-19T05:56:55.720Z,25.06
2017-06-19T05:57:38.956Z,25.11
2017-06-19T05:58:19.541Z,25.13
2017-06-19T05:59:00.176Z,25.21
2017-06-19T05:59:44.139Z,25.22
2017-06-19T06:00:35.340Z,25.31
2017-06-19T06:01:31.488Z,25.35
2017-06-19T06:02:27.162Z,25.46
2017-06-19T06:03:18.425Z,25.51
2017-06-19T06:04:23.455Z,25.6
2017-06-19T06:05:25.928Z,25.68
2017-06-19T06:06:32.612Z,25.68
2017-06-19T06:07:49.926Z,25.81
2017-06-19T06:09:02.936Z,25.84
2017-06-19T06:10:07.346Z,25.96
2017-06-19T06:20:03.292Z,26.45
2017-06-19T06:20:51.873Z,26.52
2017-06-19T06:21:36.395Z,26.43
2017-06-19T06:22:18.749Z,26.53
2017-06-19T06:23:01.971Z,26.62
2017-06-19T06:23:44.425Z,26.68
2017-06-19T06:24:27.594Z,26.65
2017-06-19T06:25:09.068Z,26.71
2017-06-19T06:25:50.543Z,26.74
2017-06-19T06:26:31.171Z,26.81
2017-06-19T06:27:11.780Z,26.77
2017-06-19T06:27:54.832Z,26.84
2017-06-19T06:28:35.458Z,26.89
2017-06-19T06:29:16.064Z,26.92
2017-06-19T06:29:56.668Z,26.93
2017-06-19T06:30:37.261Z,27
2017-06-19T06:31:17.887Z,27.03
2017-06-19T06:31:58.517Z,27.07
2017-06-19T06:32:39.122Z,27.1
2017-06-19T06:33:19.720Z,27.14
2017-06-19T06:34:00.316Z,27.12
2017-06-19T06:34:40.903Z,27.12
2017-06-19T06:35:21.547Z,27.21
2017-06-19T06:36:02.169Z,27.21
2017-06-19T06:36:42.785Z,27.2
2017-06-19T06:37:23.434Z,27.2
2017-06-19T06:38:04.024Z,27.18
2017-06-19T06:38:44.599Z,27.25
2017-06-19T06:39:25.392Z,27.27
2017-06-19T06:40:05.999Z,27.37
2017-06-19T06:40:46.625Z,27.33
2017-06-19T06:41:27.241Z,27.39
2017-06-19T06:42:07.844Z,27.33
2017-06-19T06:42:48.455Z,27.4
2017-06-19T06:43:29.081Z,27.4
2017-06-19T06:44:09.743Z,27.37
2017-06-19T06:44:50.352Z,27.39
2017-06-19T06:45:31.012Z,27.44
2017-06-19T06:46:11.772Z,27.49
2017-06-19T06:46:52.353Z,27.47
2017-06-19T06:47:32.985Z,27.49
2017-06-19T06:48:13.574Z,27.44
2017-06-19T06:48:54.165Z,27.52
2017-06-19T06:49:34.748Z,27.58
2017-06-19T06:50:15.329Z,27.59
2017-06-19T06:50:55.952Z,27.71
2017-06-19T06:51:36.570Z,27.7
2017-06-19T06:52:17.179Z,27.78
2017-06-19T06:52:57.796Z,27.86
2017-06-19T06:53:38.476Z,27.96
2017-06-19T06:54:19.091Z,27.96
2017-06-19T06:54:59.702Z,27.96
2017-06-19T06:55:40.318Z,28.07
2017-06-19T06:56:20.921Z,28.02
2017-06-19T06:57:01.518Z,28.08
2017-06-19T06:57:42.126Z,28.12
2017-06-19T06:58:22.723Z,28.17
2017-06-19T06:59:03.448Z,28.1
2017-06-19T06:59:44.058Z,28.11
2017-06-19T07:00:24.681Z,28.05
2017-06-19T07:01:05.279Z,28.17
2017-06-19T07:01:45.880Z,28.14
2017-06-19T07:02:26.527Z,28.17
2017-06-19T07:03:07.128Z,28.14
2017-06-19T07:03:47.724Z,28.19
2017-06-19T07:04:28.426Z,28.19
2017-06-19T07:05:09.027Z,28.19
2017-06-19T07:05:49.684Z,28.23
2017-06-19T07:06:30.249Z,28.12
2017-06-19T07:07:10.863Z,28.15
2017-06-19T07:07:51.473Z,28.1
2017-06-19T07:08:32.060Z,28.25
2017-06-19T07:09:12.662Z,28.25
2017-06-19T07:09:53.532Z,28.23
2017-06-19T07:10:34.129Z,28.19
2017-06-19T07:11:14.744Z,28.25
2017-06-19T07:11:55.332Z,28.27
2017-06-19T07:12:35.922Z,28.33
2017-06-19T07:13:16.775Z,28.32
2017-06-19T07:13:57.390Z,28.37
2017-06-19T07:14:37.992Z,28.41
2017-06-19T07:15:18.615Z,28.41
2017-06-19T07:15:59.238Z,28.45
2017-06-19T07:16:39.829Z,28.44
2017-06-19T07:17:20.443Z,28.45
2017-06-19T07:18:01.048Z,28.47
2017-06-19T07:18:41.640Z,28.47
2017-06-19T07:19:22.230Z,28.62
2017-06-19T07:20:02.842Z,28.54
2017-06-19T07:20:43.470Z,28.63
2017-06-19T07:21:24.134Z,28.63
2017-06-19T07:22:04.753Z,28.7
2017-06-19T07:22:45.387Z,28.78
2017-06-19T07:23:26.034Z,28.75
2017-06-19T07:24:06.623Z,28.78
2017-06-19T07:24:47.279Z,28.81
2017-06-19T07:25:27.870Z,28.78
2017-06-19T07:26:08.488Z,28.78
2017-06-19T07:26:49.066Z,28.79
2017-06-19T07:27:29.660Z,28.85
2017-06-19T07:28:10.305Z,28.91
2017-06-19T07:28:50.903Z,28.91
2017-06-19T07:29:31.544Z,28.93
2017-06-19T07:30:12.157Z,28.86
2017-06-19T07:30:52.740Z,28.85
2017-06-19T07:31:33.417Z,28.93
2017-06-19T07:32:14.029Z,28.82
2017-06-19T07:32:54.661Z,28.75
2017-06-19T07:33:35.243Z,28.72
2017-06-19T07:34:15.848Z,28.81
2017-06-19T07:34:56.440Z,28.72
2017-06-19T07:35:37.193Z,28.74
2017-06-19T07:36:17.754Z,28.78
2017-06-19T07:36:58.340Z,28.79
2017-06-19T07:37:38.930Z,28.84
2017-06-19T07:38:19.521Z,28.81
2017-06-19T07:39:00.108Z,28.89
2017-06-19T07:39:40.775Z,28.88
2017-06-19T07:40:21.373Z,28.91
2017-06-19T07:41:01.971Z,28.93
2017-06-19T07:41:42.555Z,28.88
2017-06-19T07:42:23.168Z,28.89
2017-06-19T07:43:03.780Z,28.97
2017-06-19T07:43:44.403Z,29.04
2017-06-19T07:44:24.975Z,28.97
2017-06-19T07:45:05.604Z,29.02
2017-06-19T07:45:46.263Z,29.14
2017-06-19T07:46:26.850Z,29.08
2017-06-19T07:47:07.469Z,29.07
2017-06-19T07:47:48.078Z,29.07
2017-06-19T07:48:28.650Z,29.05
2017-06-19T07:49:09.255Z,29.04
2017-06-19T07:49:49.851Z,29.05
2017-06-19T07:50:30.445Z,29.04
2017-06-19T07:51:11.086Z,29.1
2017-06-19T07:51:51.710Z,29.02
2017-06-19T07:52:32.355Z,28.98
2017-06-19T07:53:12.980Z,29.05
2017-06-19T07:53:53.581Z,28.91
2017-06-19T07:54:34.183Z,28.93
2017-06-19T07:55:14.810Z,28.94
2017-06-19T07:55:55.459Z,29.02
2017-06-19T07:56:36.077Z,28.97
2017-06-19T07:57:16.736Z,29.14
2017-06-19T07:57:57.320Z,29.19
2017-06-19T07:58:37.926Z,29.22
2017-06-19T07:59:18.520Z,29.29
2017-06-19T07:59:59.105Z,29.38
2017-06-19T08:00:39.703Z,29.34
2017-06-19T08:01:20.303Z,29.26
2017-06-19T08:02:00.932Z,29.27
2017-06-19T08:02:41.613Z,29.34
2017-06-19T08:03:22.232Z,29.38
2017-06-19T08:04:02.830Z,29.36
2017-06-19T08:04:43.425Z,29.34
2017-06-19T08:05:24.040Z,29.35
2017-06-19T08:06:04.662Z,29.36
2017-06-19T08:06:45.317Z,29.24
2017-06-19T08:07:25.932Z,29.29
2017-06-19T08:08:06.542Z,29.38
2017-06-19T08:08:47.113Z,29.38
2017-06-19T08:09:27.869Z,29.41
2017-06-19T08:10:08.505Z,29.44
2017-06-19T08:10:49.067Z,29.44
2017-06-19T08:11:29.660Z,29.53
2017-06-19T08:12:10.273Z,29.51
2017-06-19T08:12:50.949Z,29.5
2017-06-19T08:13:31.550Z,29.51
2017-06-19T08:14:12.154Z,29.57
2017-06-19T08:14:52.754Z,29.6
2017-06-19T08:15:33.426Z,29.63
2017-06-19T08:16:14.012Z,29.61
2017-06-19T08:17:04.391Z,29.59
2017-06-19T08:17:45.021Z,29.59
2017-06-19T08:18:25.654Z,29.63
2017-06-19T08:19:07.076Z,29.66
2017-06-19T08:19:47.686Z,29.73
2017-06-19T08:20:28.257Z,29.71
2017-06-19T08:21:08.852Z,29.68
2017-06-19T08:21:49.442Z,29.68
2017-06-19T08:22:30.046Z,29.76
2017-06-19T08:23:10.685Z,29.76
2017-06-19T08:23:51.213Z,29.76
2017-06-19T08:24:31.854Z,29.79
2017-06-19T08:25:12.493Z,29.84
2017-06-19T08:25:53.069Z,29.73
2017-06-19T08:26:33.710Z,29.72
2017-06-19T08:27:14.316Z,29.72
2017-06-19T08:27:54.913Z,29.71
2017-06-19T08:28:35.507Z,29.73
2017-06-19T08:29:16.094Z,29.72
2017-06-19T08:29:56.684Z,29.71
2017-06-19T08:30:37.302Z,29.73
2017-06-19T08:31:17.913Z,29.79
2017-06-19T08:31:58.545Z,29.69
2017-06-19T08:32:39.155Z,29.61
2017-06-19T08:33:19.743Z,29.61
2017-06-19T08:34:00.353Z,29.59
2017-06-19T08:34:40.953Z,29.54
2017-06-19T08:35:21.545Z,29.41
2017-06-19T08:36:02.144Z,29.42
2017-06-19T08:36:42.726Z,29.27
2017-06-19T08:37:23.352Z,29.23
2017-06-19T08:38:03.950Z,29.17
2017-06-19T08:38:44.536Z,29.02
2017-06-19T08:39:25.131Z,28.97
2017-06-19T08:40:05.734Z,28.93
2017-06-19T08:40:46.334Z,28.84
2017-06-19T08:41:26.977Z,28.78
2017-06-19T08:42:07.561Z,28.7
2017-06-19T08:42:48.173Z,28.63
2017-06-19T08:43:28.794Z,28.59
2017-06-19T08:44:09.400Z,28.48
2017-06-19T08:44:50.080Z,28.29
2017-06-19T08:45:30.707Z,28.19
2017-06-19T08:46:11.322Z,28.15
2017-06-19T08:46:51.910Z,28.02
2017-06-19T08:47:32.517Z,27.98
2017-06-19T08:48:13.113Z,28.05
2017-06-19T08:48:53.706Z,28
2017-06-19T08:49:35.312Z,28.04
2017-06-19T08:50:15.903Z,28.08
2017-06-19T08:50:56.493Z,28.07
2017-06-19T08:51:37.106Z,28.14
2017-06-19T08:52:18.130Z,28.19
2017-06-19T08:52:58.717Z,28.23
2017-06-19T08:53:39.312Z,28.25
2017-06-19T08:54:19.994Z,28.32
2017-06-19T08:55:00.566Z,28.33
2017-06-19T08:55:41.158Z,28.47
2017-06-19T08:56:21.946Z,28.45
2017-06-19T08:57:02.530Z,28.38
2017-06-19T08:57:43.127Z,28.38
2017-06-19T08:58:23.745Z,28.39
2017-06-19T08:59:04.628Z,28.37
2017-06-19T08:59:45.242Z,28.27
2017-06-19T09:00:29.493Z,28.3